Lancaster, Indiana
Current Conditions -  °F | °C
As of 8:15 AM on Thursday 25 Dec 2014 (Local Time) from KHHG Reporting Station
Overcast Overcast  
Wind Chill: 24°   Ceiling: 1600
Heat Index: 34°   Visibility: 10mi
Dew Point: 31°   Wind: 16mph
Humidity: 89%   Direction: 260°W
Pressure: 29.93"   Gusts: 22mph
Location:  40.9238°N, 85.5001°W
Report Text: KHHG 251315Z AUTO 26014G19KT 10SM BKN016 OVC035 01/00 A2993 RMK AO2 T00121004
Loading
Personal Weather Stations






























Interactive Weather Map New forecast layout! Learn more

10-Day Weather Forecast

Advertisements
Track Severe Weather on mobile